Time;durP1;ratioP1;P1;durP2;ratioP2;P2;SDS_P1;SDS_P2;PMS_P1;PMS_P2;Temp;Humidity;BMP_temperature;BMP_pressure;BME280_temperature;BME280_humidity;BME280_pressure;Samples;Min_cycle;Max_cycle;Signal;HPM_P1;HPM_P2
2021/12/28 00:01:40;819489.00;2.73;1415.13;77476.00;0.26;134.68;;;;;13.40;1.00;;;;;;2277310;61;1008;-88
2021/12/28 00:04:08;801665.00;2.67;1384.03;53065.00;0.18;92.49;;;;;13.00;1.00;;;;;;2273008;61;2001;-88
2021/12/28 00:06:36;861568.00;2.87;1488.72;80297.00;0.27;139.55;;;;;12.90;1.00;;;;;;2266588;61;1191;-88
2021/12/28 00:09:03;810278.00;2.70;1399.05;91780.00;0.31;159.38;;;;;13.20;1.00;;;;;;2273013;61;1017;-88
2021/12/28 00:11:30;603728.00;2.01;1040.66;23723.00;0.08;41.72;;;;;13.10;1.00;;;;;;2273272;61;1151;-88
2021/12/28 00:14:01;373148.00;1.24;643.65;0.00;0.00;0.62;;;;;13.20;1.00;;;;;;2270217;61;1443;-88
2021/12/28 00:16:32;597121.00;1.99;1029.25;0.00;0.00;0.62;;;;;13.00;1.00;;;;;;2266243;61;1143;-89
2021/12/28 00:19:01;752510.00;2.51;1298.42;0.00;0.00;0.62;;;;;13.30;1.00;;;;;;2265246;61;1116;-89
2021/12/28 00:21:29;509883.00;1.70;878.84;3600.00;0.01;6.86;;;;;13.30;1.00;;;;;;2265949;61;1207;-88
2021/12/28 00:23:57;693337.00;2.31;1195.69;8752.00;0.03;15.79;;;;;13.30;1.00;;;;;;2261054;61;2031;-88
2021/12/28 00:26:25;546513.00;1.82;941.95;0.00;0.00;0.62;;;;;13.50;1.00;;;;;;2261242;61;1167;-89
2021/12/28 00:28:52;841924.00;2.81;1454.34;32424.00;0.11;56.78;;;;;13.50;1.00;;;;;;2257990;61;1239;-88
2021/12/28 00:31:19;635406.00;2.12;1095.40;84277.00;0.28;146.42;;;;;13.50;1.00;;;;;;2257676;61;1168;-88
2021/12/28 00:33:46;538428.00;1.79;928.01;32205.00;0.11;56.40;;;;;13.10;1.00;;;;;;2252422;61;1294;-88
2021/12/28 00:36:16;690688.00;2.30;1191.09;89274.00;0.30;155.05;;;;;13.00;1.00;;;;;;2269262;61;1066;-88
2021/12/28 00:38:43;663398.00;2.21;1143.82;91637.00;0.31;159.13;;;;;12.90;1.00;;;;;;2269048;61;1166;-88
2021/12/28 00:41:11;794838.00;2.65;1372.12;0.00;0.00;0.62;;;;;13.20;1.00;;;;;;2263360;61;1234;-88
2021/12/28 00:43:38;467097.00;1.56;805.19;0.00;0.00;0.62;;;;;13.30;1.00;;;;;;2278056;61;1917;-88
2021/12/28 00:46:07;382496.00;1.27;659.72;5754.00;0.02;10.59;;;;;13.20;1.00;;;;;;2273095;61;1194;-88
2021/12/28 00:48:34;491714.00;1.64;847.56;0.00;0.00;0.62;;;;;13.30;1.00;;;;;;2273682;61;1084;-89
2021/12/28 00:51:04;781043.00;2.60;1348.08;21696.00;0.07;38.21;;;;;13.30;1.00;;;;;;2274113;61;1168;-88
2021/12/28 00:53:33;733471.00;2.44;1265.33;0.00;0.00;0.62;;;;;13.30;1.00;;;;;;2273996;61;1431;-88
2021/12/28 00:56:00;571205.00;1.90;984.53;19005.00;0.06;33.55;;;;;13.40;1.00;;;;;;2274253;61;1139;-88
2021/12/28 00:58:28;784143.00;2.61;1353.48;43787.00;0.15;76.44;;;;;13.30;1.00;;;;;;2270498;61;1077;-89
2021/12/28 01:00:54;843024.00;2.81;1456.26;37026.00;0.12;64.74;;;;;13.10;1.00;;;;;;2260553;61;1139;-88
2021/12/28 01:03:21;952321.00;3.17;1648.20;106689.00;0.36;185.12;;;;;13.00;1.00;;;;;;2270019;61;1985;-88
2021/12/28 01:05:49;117544768.00;391.82;65786972.00;93826.00;0.31;162.91;;;;;13.00;1.00;;;;;;2262263;61;1052;-88
2021/12/28 01:08:17;978628.00;3.26;1694.66;79749.00;0.27;138.60;;;;;12.80;1.00;;;;;;2255816;61;1221;-88
2021/12/28 01:10:48;373489.00;1.24;644.23;0.00;0.00;0.62;;;;;12.80;1.00;;;;;;2255781;61;1061;-88
2021/12/28 01:13:16;509716.00;1.70;878.55;11390.00;0.04;20.36;;;;;12.80;1.00;;;;;;2252327;61;1421;-88
2021/12/28 01:15:44;555161.00;1.85;956.86;46264.00;0.15;80.72;;;;;12.70;1.00;;;;;;2263883;61;1112;-89
2021/12/28 01:18:12;748019.00;2.49;1290.61;4884.00;0.02;9.08;;;;;12.80;1.00;;;;;;2270457;61;1184;-88
2021/12/28 01:20:40;609810.00;2.03;1051.16;0.00;0.00;0.62;;;;;12.80;1.00;;;;;;2273784;61;1164;-89
2021/12/28 01:23:06;542173.00;1.81;934.47;44798.00;0.15;78.19;;;;;13.00;1.00;;;;;;2276204;61;1994;-88
2021/12/28 01:25:34;839334.00;2.80;1449.81;33629.00;0.11;58.86;;;;;12.90;1.00;;;;;;2272328;61;1061;-88
2021/12/28 01:28:03;671456.00;2.24;1157.77;69162.00;0.23;120.31;;;;;12.90;1.00;;;;;;2274329;61;1060;-88
2021/12/28 01:30:31;714466.00;2.38;1232.33;24989.00;0.08;43.91;;;;;12.60;1.00;;;;;;2266170;61;1187;-89
2021/12/28 01:33:01;885702.00;2.95;1531.02;82414.00;0.27;143.21;;;;;12.70;1.00;;;;;;2272211;61;1329;-88
2021/12/28 01:35:31;1156544.00;3.86;2011.85;116887.00;0.39;202.71;;;;;12.70;1.00;;;;;;2272459;61;1120;-88
2021/12/28 01:40:31;772868.00;2.58;1333.85;0.00;0.00;0.62;;;;;12.40;1.00;;;;;;2286850;60;1405;-88
2021/12/28 01:43:04;372476.00;1.24;642.49;0.00;0.00;0.62;;;;;12.50;1.00;;;;;;2272838;61;2010;-86
2021/12/28 01:48:53;839156.00;2.80;1449.50;95419.00;0.32;165.66;;;;;12.60;1.00;;;;;;2271936;61;1017;-89
2021/12/28 01:51:22;277298.00;0.92;478.89;0.00;0.00;0.62;;;;;12.40;1.00;;;;;;2263823;61;1011;-89
2021/12/28 01:53:52;282395.00;0.94;487.66;0.00;0.00;0.62;;;;;12.50;1.00;;;;;;2257277;61;1319;-89
2021/12/28 01:56:22;312038.00;1.04;538.61;0.00;0.00;0.62;;;;;12.70;1.00;;;;;;2255855;61;1382;-88
2021/12/28 01:58:51;319236.00;1.06;550.98;0.00;0.00;0.62;;;;;12.80;1.00;;;;;;2249265;61;1046;-89
2021/12/28 02:01:20;307753.00;1.03;531.25;0.00;0.00;0.62;;;;;12.70;1.00;;;;;;2259395;61;1025;-88
2021/12/28 02:03:48;244840.00;0.82;423.08;0.00;0.00;0.62;;;;;12.70;1.00;;;;;;2260507;61;2000;-88
2021/12/28 02:06:16;344328.00;1.15;594.11;0.00;0.00;0.62;;;;;12.40;1.00;;;;;;2259722;61;1262;-88
2021/12/28 02:08:44;227627.00;0.76;393.47;0.00;0.00;0.62;;;;;12.50;1.00;;;;;;2261512;61;1072;-89
2021/12/28 02:11:17;270764.00;0.90;467.66;0.00;0.00;0.62;;;;;12.30;1.00;;;;;;2257957;61;968;-89
2021/12/28 02:13:44;336732.00;1.12;581.06;43383.00;0.14;75.74;;;;;12.50;1.00;;;;;;2262138;61;1026;-89
2021/12/28 02:16:13;248235.00;0.83;428.92;0.00;0.00;0.62;;;;;12.40;1.00;;;;;;2272549;61;1325;-88
2021/12/28 02:18:55;409497.00;1.36;706.13;0.00;0.00;0.62;;;;;12.40;1.00;;;;;;2272684;61;998;-90
2021/12/28 02:21:24;601734.00;2.01;1037.21;67278.00;0.22;117.06;;;;;12.10;1.00;;;;;;2265214;61;1005;-88
2021/12/28 02:23:51;695913.00;2.32;1200.15;128777.00;0.43;223.22;;;;;12.10;1.00;;;;;;2267085;61;2016;-89
2021/12/28 02:29:40;2196035.00;7.32;4034.93;263178.00;0.88;454.61;;;;;12.00;1.00;;;;;;2281275;61;726;-89
2021/12/28 02:32:32;1552089.00;5.17;2741.52;67032.00;0.22;116.63;;;;;12.10;1.00;;;;;;2274040;61;1036;-89
2021/12/28 02:35:27;709315.00;2.36;1223.40;0.00;0.00;0.62;;;;;12.10;1.00;;;;;;2271885;61;1021;-86
2021/12/28 02:38:13;414533.00;1.38;714.79;0.00;0.00;0.62;;;;;11.80;1.00;;;;;;2263735;61;1355;-87
2021/12/28 02:40:42;369802.00;1.23;637.90;0.00;0.00;0.62;;;;;11.60;1.00;;;;;;2262029;61;1129;-88
2021/12/28 02:43:16;281026.00;0.94;485.30;0.00;0.00;0.62;;;;;11.90;1.00;;;;;;2255668;61;2025;-87
2021/12/28 02:45:50;260550.00;0.87;450.09;0.00;0.00;0.62;;;;;12.00;1.00;;;;;;2254265;61;1289;-87
2021/12/28 02:48:19;420336.00;1.40;724.77;0.00;0.00;0.62;;;;;12.00;1.00;;;;;;2254050;61;1263;-87
2021/12/28 02:50:51;341003.00;1.14;588.40;0.00;0.00;0.62;;;;;11.90;1.00;;;;;;2250910;61;1160;-88
2021/12/28 02:53:20;418399.00;1.39;721.44;31892.00;0.11;55.86;;;;;12.20;1.00;;;;;;2252656;61;1158;-87
2021/12/28 02:55:50;515984.00;1.72;889.35;33927.00;0.11;59.38;;;;;12.40;1.00;;;;;;2255453;61;1400;-88
2021/12/28 02:58:28;217127.00;0.72;375.40;0.00;0.00;0.62;;;;;12.40;1.00;;;;;;2265630;61;1158;-87
2021/12/28 03:01:06;366601.00;1.22;632.39;23461.00;0.08;41.26;;;;;12.30;1.00;;;;;;2274935;61;1070;-87
2021/12/28 03:03:35;266732.00;0.89;460.72;0.00;0.00;0.62;;;;;12.20;1.00;;;;;;2273468;61;1923;-88
2021/12/28 03:06:06;265071.00;0.88;457.87;0.00;0.00;0.62;;;;;12.30;1.00;;;;;;2279007;61;1341;-87
2021/12/28 03:08:37;148955.00;0.50;258.01;0.00;0.00;0.62;;;;;12.40;1.00;;;;;;2279375;61;1231;-87
2021/12/28 03:11:10;151846.00;0.51;262.99;0.00;0.00;0.62;;;;;12.50;1.00;;;;;;2275106;61;1236;-87
2021/12/28 03:13:40;259924.00;0.87;449.02;0.00;0.00;0.62;;;;;12.60;1.00;;;;;;2268509;61;1251;-87
2021/12/28 03:16:10;293911.00;0.98;507.45;0.00;0.00;0.62;;;;;12.80;1.00;;;;;;2269613;61;1349;-87
2021/12/28 03:18:37;226041.00;0.75;390.74;0.00;0.00;0.62;;;;;12.80;1.00;;;;;;2271861;61;1169;-87
2021/12/28 03:21:14;277570.00;0.93;479.36;0.00;0.00;0.62;;;;;12.70;1.00;;;;;;2271827;61;1157;-87
2021/12/28 03:23:43;348109.00;1.16;600.61;52759.00;0.18;91.96;;;;;12.70;1.00;;;;;;2272540;61;1931;-87
2021/12/28 03:26:13;429700.00;1.43;740.87;0.00;0.00;0.62;;;;;12.60;1.00;;;;;;2279312;61;1258;-87
2021/12/28 03:28:42;186360.00;0.62;322.44;0.00;0.00;0.62;;;;;12.60;1.00;;;;;;2270432;61;1038;-88
2021/12/28 03:31:18;207533.00;0.69;358.89;0.00;0.00;0.62;;;;;12.70;1.00;;;;;;2270290;61;1220;-87
2021/12/28 03:33:51;197001.00;0.66;340.76;0.00;0.00;0.62;;;;;12.80;1.00;;;;;;2266721;61;1145;-87
2021/12/28 03:36:19;219219.00;0.73;379.00;0.00;0.00;0.62;;;;;12.70;1.00;;;;;;2270227;61;1409;-87
2021/12/28 03:38:48;300064.00;1.00;518.03;0.00;0.00;0.62;;;;;12.70;1.00;;;;;;2270361;61;1172;-88
2021/12/28 03:41:17;340634.00;1.14;587.76;0.00;0.00;0.62;;;;;12.70;1.00;;;;;;2270191;61;1058;-87
2021/12/28 03:43:47;431336.00;1.44;743.68;0.00;0.00;0.62;;;;;12.90;1.00;;;;;;2270350;61;1946;-87
2021/12/28 03:46:14;389217.00;1.30;671.27;0.00;0.00;0.62;;;;;13.00;1.00;;;;;;2269358;61;1300;-87
2021/12/28 03:48:42;296099.00;0.99;511.21;0.00;0.00;0.62;;;;;13.00;1.00;;;;;;2271611;61;1253;-87
2021/12/28 03:51:09;291058.00;0.97;502.55;0.00;0.00;0.62;;;;;13.00;1.00;;;;;;2271395;61;1153;-87
2021/12/28 03:53:37;293506.00;0.98;506.76;0.00;0.00;0.62;;;;;13.10;1.00;;;;;;2268281;61;1129;-88
2021/12/28 03:56:08;348118.00;1.16;600.63;0.00;0.00;0.62;;;;;13.20;1.00;;;;;;2279043;61;1434;-87
2021/12/28 03:58:35;271891.00;0.91;469.60;0.00;0.00;0.62;;;;;13.30;1.00;;;;;;2268139;61;1160;-87
2021/12/28 04:01:03;369690.00;1.23;637.70;36712.00;0.12;64.20;;;;;13.20;1.00;;;;;;2270080;61;1119;-87
2021/12/28 04:03:30;245601.00;0.82;424.39;0.00;0.00;0.62;;;;;13.20;1.00;;;;;;2270176;61;2021;-88
2021/12/28 04:06:09;301432.00;1.00;520.38;0.00;0.00;0.62;;;;;13.20;1.00;;;;;;2270000;61;1388;-88
2021/12/28 04:08:38;395842.00;1.32;682.66;0.00;0.00;0.62;;;;;13.20;1.00;;;;;;2259706;61;1184;-87
2021/12/28 04:11:25;251373.00;0.84;434.31;0.00;0.00;0.62;;;;;13.10;1.00;;;;;;2263091;61;1145;-87
2021/12/28 04:13:54;306081.00;1.02;528.37;0.00;0.00;0.62;;;;;12.90;1.00;;;;;;2269806;61;1144;-88
2021/12/28 04:16:22;251151.00;0.84;433.93;0.00;0.00;0.62;;;;;12.80;1.00;;;;;;2269676;61;1386;-87
2021/12/28 04:18:51;217875.00;0.73;376.69;0.00;0.00;0.62;;;;;13.00;1.00;;;;;;2266801;61;1273;-85
2021/12/28 04:21:18;250578.00;0.84;432.95;0.00;0.00;0.62;;;;;13.00;1.00;;;;;;2269234;61;1181;-85
2021/12/28 04:23:46;289291.00;0.96;499.51;0.00;0.00;0.62;;;;;13.00;1.00;;;;;;2268095;61;1998;-90
2021/12/28 04:26:14;411173.00;1.37;709.01;0.00;0.00;0.62;;;;;13.00;1.00;;;;;;2261478;61;1403;-87
2021/12/28 04:28:42;254286.00;0.85;439.32;0.00;0.00;0.62;;;;;13.30;1.00;;;;;;2261468;61;1042;-88
2021/12/28 04:31:10;311543.00;1.04;537.76;0.00;0.00;0.62;;;;;13.40;1.00;;;;;;2268178;61;1100;-85
2021/12/28 04:33:40;222269.00;0.74;384.25;0.00;0.00;0.62;;;;;13.30;1.00;;;;;;2268178;61;938;-87
2021/12/28 04:36:09;389596.00;1.30;671.92;0.00;0.00;0.62;;;;;13.00;1.00;;;;;;2268044;61;1253;-86
2021/12/28 04:38:38;261011.00;0.87;450.89;0.00;0.00;0.62;;;;;12.70;1.00;;;;;;2261317;61;1065;-88
2021/12/28 04:41:06;219801.00;0.73;380.00;0.00;0.00;0.62;;;;;12.50;1.00;;;;;;2263485;61;973;-86
2021/12/28 04:43:34;371586.00;1.24;640.96;0.00;0.00;0.62;;;;;12.70;1.00;;;;;;2267926;61;1918;-88
2021/12/28 04:46:01;325917.00;1.09;562.47;0.00;0.00;0.62;;;;;12.60;1.00;;;;;;2268032;61;1286;-87
2021/12/28 04:48:29;240885.00;0.80;416.27;0.00;0.00;0.62;;;;;12.60;1.00;;;;;;2261413;61;1055;-88
2021/12/28 04:50:56;398408.00;1.33;687.07;0.00;0.00;0.62;;;;;12.70;1.00;;;;;;2268013;61;1154;-88
2021/12/28 04:53:24;178805.00;0.60;309.43;0.00;0.00;0.62;;;;;12.70;1.00;;;;;;2261417;61;1170;-89
2021/12/28 04:55:52;726079.00;2.42;1252.49;43059.00;0.14;75.18;;;;;12.60;1.00;;;;;;2261363;61;1386;-89
2021/12/28 04:58:20;2447763.00;8.16;4587.93;412088.00;1.37;710.59;;;;;12.50;1.00;;;;;;2267875;61;1055;-89
2021/12/28 05:00:51;1992164.00;6.64;3608.25;127241.00;0.42;220.57;;;;;12.50;1.00;;;;;;2269344;61;1052;-87
2021/12/28 05:03:19;564466.00;1.88;972.90;109333.00;0.36;189.68;;;;;12.40;1.00;;;;;;2269659;61;966;-89
2021/12/28 05:05:48;348631.00;1.16;601.51;0.00;0.00;0.62;;;;;12.70;1.00;;;;;;2280344;61;2001;-89
2021/12/28 05:08:20;318887.00;1.06;550.39;0.00;0.00;0.62;;;;;12.80;1.00;;;;;;2280565;61;1124;-88
2021/12/28 05:10:47;276390.00;0.92;477.33;0.00;0.00;0.62;;;;;12.90;1.00;;;;;;2269566;61;1177;-90
2021/12/28 05:13:15;2604280.00;8.68;4947.94;309829.00;1.03;534.82;;;;;12.70;1.00;;;;;;2270358;61;1084;-92
2021/12/28 05:15:44;1799818.00;6.00;3221.06;100385.00;0.33;174.24;;;;;12.80;1.00;;;;;;2269794;61;1376;-88
2021/12/28 05:18:14;833864.00;2.78;1440.25;112540.00;0.38;195.21;;;;;13.00;1.00;;;;;;2273677;61;1198;-89
2021/12/28 05:20:41;499037.00;1.66;860.17;87805.00;0.29;152.52;;;;;13.00;1.00;;;;;;2280771;61;962;-90
2021/12/28 05:23:08;250030.00;0.83;432.00;0.00;0.00;0.62;;;;;13.00;1.00;;;;;;2269193;61;1044;-88
2021/12/28 05:25:36;342626.00;1.14;591.19;0.00;0.00;0.62;;;;;13.30;1.00;;;;;;2271912;61;2021;-87
2021/12/28 05:28:03;425056.00;1.42;732.88;0.00;0.00;0.62;;;;;13.20;1.00;;;;;;2273127;61;1420;-89
2021/12/28 05:30:30;1059882.00;3.53;1838.83;79685.00;0.27;138.49;;;;;13.20;1.00;;;;;;2273582;61;1201;-89
2021/12/28 05:32:58;2217641.00;7.39;4081.21;372618.00;1.24;642.74;;;;;13.40;1.00;;;;;;2272101;61;1001;-90
2021/12/28 05:35:26;1184688.00;3.95;2062.56;113052.00;0.38;196.10;;;;;13.50;1.00;;;;;;2267030;61;983;-88
2021/12/28 05:37:53;746941.00;2.49;1288.74;95854.00;0.32;166.41;;;;;13.50;1.00;;;;;;2259657;61;1399;-88
2021/12/28 05:40:21;616449.00;2.05;1062.63;85818.00;0.29;149.09;;;;;13.40;1.00;;;;;;2263097;61;1162;-88
2021/12/28 05:42:48;528299.00;1.76;910.56;96954.00;0.32;168.31;;;;;13.30;1.00;;;;;;2261113;61;1111;-88
2021/12/28 05:45:15;262279.00;0.87;453.07;0.00;0.00;0.62;;;;;13.10;1.00;;;;;;2258833;61;1948;-87
2021/12/28 05:47:42;341399.00;1.14;589.08;0.00;0.00;0.62;;;;;13.10;1.00;;;;;;2258179;61;1396;-88
2021/12/28 05:50:10;254946.00;0.85;440.46;0.00;0.00;0.62;;;;;13.00;1.00;;;;;;2258433;61;1038;-87
2021/12/28 05:52:39;259199.00;0.86;447.77;0.00;0.00;0.62;;;;;13.00;1.00;;;;;;2261751;61;1086;-88
2021/12/28 05:55:07;229648.00;0.77;396.94;0.00;0.00;0.62;;;;;12.90;1.00;;;;;;2262000;61;1094;-87
2021/12/28 05:57:34;267489.00;0.89;462.03;0.00;0.00;0.62;;;;;13.00;1.00;;;;;;2262219;61;1262;-86
2021/12/28 06:00:01;246845.00;0.82;426.52;0.00;0.00;0.62;;;;;13.20;1.00;;;;;;2259609;61;1134;-87
2021/12/28 06:02:28;277701.00;0.93;479.58;0.00;0.00;0.62;;;;;13.10;1.00;;;;;;2269890;61;1081;-87
2021/12/28 06:04:55;296919.00;0.99;512.62;0.00;0.00;0.62;;;;;13.30;1.00;;;;;;2270339;61;1927;-88
2021/12/28 06:07:27;304653.00;1.02;525.92;0.00;0.00;0.62;;;;;13.20;1.00;;;;;;2266549;61;1400;-87
2021/12/28 06:09:58;273648.00;0.91;472.62;0.00;0.00;0.62;;;;;13.20;1.00;;;;;;2266204;61;1093;-87
2021/12/28 06:12:25;277815.00;0.93;479.78;0.00;0.00;0.62;;;;;13.10;1.00;;;;;;2267264;61;1168;-85
2021/12/28 06:14:53;552292.00;1.84;951.91;15695.00;0.05;27.81;;;;;13.00;1.00;;;;;;2267435;61;1291;-85
2021/12/28 06:17:21;1903659.00;6.35;3428.34;295221.00;0.98;509.70;;;;;12.40;1.00;;;;;;2258575;61;1278;-85
2021/12/28 06:19:48;1197985.00;3.99;2086.58;101921.00;0.34;176.89;;;;;12.50;1.00;;;;;;2267423;61;1067;-86
2021/12/28 06:22:15;355804.00;1.19;613.84;94681.00;0.32;164.39;;;;;12.70;1.00;;;;;;2267986;61;1172;-86
2021/12/28 06:24:42;234955.00;0.78;406.07;0.00;0.00;0.62;;;;;12.70;1.00;;;;;;2262905;61;1926;-85
2021/12/28 06:27:13;1415111.00;4.72;2484.38;381284.00;1.27;657.63;;;;;12.70;1.00;;;;;;2260433;61;1376;-86
2021/12/28 06:29:40;1565926.00;5.22;2767.80;261901.00;0.87;452.42;;;;;12.90;1.00;;;;;;2267377;61;1201;-86
2021/12/28 06:32:07;1598142.00;5.33;2829.19;151548.00;0.51;262.48;;;;;12.30;1.00;;;;;;2263070;61;1207;-85
2021/12/28 06:34:35;1166084.00;3.89;2029.02;65648.00;0.22;114.24;;;;;12.30;1.00;;;;;;2263984;61;1161;-86
2021/12/28 06:37:01;1502337.00;5.01;2647.52;114486.00;0.38;198.57;;;;;12.50;1.00;;;;;;2258446;61;1282;-85
2021/12/28 06:39:29;1080515.00;3.60;1875.61;167569.00;0.56;290.08;;;;;12.20;1.00;;;;;;2259083;61;1149;-86
2021/12/28 06:41:56;555942.00;1.85;958.20;97158.00;0.32;168.67;;;;;12.20;1.00;;;;;;2260081;61;1167;-86
2021/12/28 06:44:25;364638.00;1.22;629.02;97491.00;0.32;169.24;;;;;12.30;1.00;;;;;;2266915;61;1927;-85
2021/12/28 06:46:51;457323.00;1.52;788.38;84799.00;0.28;147.33;;;;;12.40;1.00;;;;;;2266372;61;1278;-86
2021/12/28 06:49:19;772216.00;2.57;1332.71;107868.00;0.36;187.15;;;;;12.60;1.00;;;;;;2262618;61;1150;-86
2021/12/28 06:51:46;444176.00;1.48;765.77;96119.00;0.32;166.87;;;;;12.50;1.00;;;;;;2263176;61;1165;-86
2021/12/28 06:54:14;486031.00;1.62;837.78;86384.00;0.29;150.06;;;;;12.70;1.00;;;;;;2266512;61;1098;-86
2021/12/28 06:56:41;430478.00;1.43;742.21;89379.00;0.30;155.24;;;;;13.00;1.00;;;;;;2266278;61;1430;-85
2021/12/28 06:59:08;255878.00;0.85;442.06;0.00;0.00;0.62;;;;;13.00;1.00;;;;;;2266337;61;1149;-85
2021/12/28 07:01:37;250816.00;0.84;433.35;0.00;0.00;0.62;;;;;12.90;1.00;;;;;;2262889;61;1070;-86
2021/12/28 07:04:04;333658.00;1.11;575.77;0.00;0.00;0.62;;;;;12.30;1.00;;;;;;2267236;61;1947;-85
2021/12/28 07:06:31;272999.00;0.91;471.50;0.00;0.00;0.62;;;;;12.40;1.00;;;;;;2267260;61;1395;-86
2021/12/28 07:08:58;201802.00;0.67;349.03;0.00;0.00;0.62;;;;;12.90;1.00;;;;;;2273981;61;1248;-86
2021/12/28 07:11:25;214778.00;0.72;371.36;0.00;0.00;0.62;;;;;13.10;1.00;;;;;;2274834;61;1108;-86
2021/12/28 07:13:52;171354.00;0.57;296.60;0.00;0.00;0.62;;;;;13.30;1.00;;;;;;2271391;61;1093;-86
2021/12/28 07:16:20;252382.00;0.84;436.05;0.00;0.00;0.62;;;;;13.20;1.00;;;;;;2275127;61;1391;-86
2021/12/28 07:18:49;298002.00;0.99;514.49;0.00;0.00;0.62;;;;;13.00;1.00;;;;;;2274372;61;1070;-86
2021/12/28 07:21:16;187455.00;0.62;324.33;0.00;0.00;0.62;;;;;12.90;1.00;;;;;;2270482;61;1180;-86
2021/12/28 07:23:43;239332.00;0.80;413.60;0.00;0.00;0.62;;;;;13.00;1.00;;;;;;2270709;61;1053;-85
2021/12/28 07:26:10;297951.00;0.99;514.40;0.00;0.00;0.62;;;;;13.20;1.00;;;;;;2274490;61;1997;-86
2021/12/28 07:28:37;293239.00;0.98;506.30;0.00;0.00;0.62;;;;;13.40;1.00;;;;;;2274142;61;1101;-85
2021/12/28 07:31:04;396379.00;1.32;683.58;0.00;0.00;0.62;;;;;13.10;1.00;;;;;;2270309;61;1181;-86
2021/12/28 07:33:31;233566.00;0.78;403.68;0.00;0.00;0.62;;;;;13.00;1.00;;;;;;2270578;61;1164;-86
2021/12/28 07:35:59;241762.00;0.81;417.78;0.00;0.00;0.62;;;;;13.10;1.00;;;;;;2274325;61;1433;-86
2021/12/28 07:38:26;273310.00;0.91;472.04;0.00;0.00;0.62;;;;;13.50;1.00;;;;;;2268135;61;1099;-86
2021/12/28 07:40:53;601373.00;2.00;1036.59;131727.00;0.44;228.31;;;;;13.50;1.00;;;;;;2266909;61;1176;-86
2021/12/28 07:43:20;1114268.00;3.71;1935.96;127803.00;0.43;221.54;;;;;13.60;1.00;;;;;;2266798;61;1215;-86
2021/12/28 07:45:47;953803.00;3.18;1650.82;67401.00;0.22;117.27;;;;;13.70;1.00;;;;;;2266500;61;2006;-86
2021/12/28 07:48:14;1493036.00;4.98;2630.02;22689.00;0.08;39.93;;;;;13.90;1.00;;;;;;2267069;61;1144;-86
2021/12/28 07:50:41;1281584.00;4.27;2238.44;174874.00;0.58;302.66;;;;;14.00;1.00;;;;;;2269015;61;1188;-86
2021/12/28 07:53:10;1694398.00;5.65;3014.54;195356.00;0.65;337.93;;;;;14.20;1.00;;;;;;2270782;61;1172;-86
2021/12/28 07:55:36;1195278.00;3.98;2081.69;128525.00;0.43;222.79;;;;;14.10;1.00;;;;;;2271679;61;1212;-86
2021/12/28 07:58:04;1174152.00;3.91;2043.56;151011.00;0.50;261.55;;;;;14.20;1.00;;;;;;2277081;61;1230;-87
2021/12/28 08:00:31;1337048.00;4.46;2340.07;128292.00;0.43;222.38;;;;;14.30;1.00;;;;;;2280876;61;1207;-87
2021/12/28 08:03:00;1353493.00;4.51;2370.34;193481.00;0.64;334.70;;;;;14.50;1.00;;;;;;2277929;61;1121;-86
2021/12/28 08:05:27;1216166.00;4.05;2119.48;123143.00;0.41;213.50;;;;;14.30;1.00;;;;;;2280965;61;1921;-88
2021/12/28 08:07:55;1321460.00;4.40;2311.43;214071.00;0.71;370.14;;;;;14.30;1.00;;;;;;2280792;61;1317;-86
2021/12/28 08:10:23;1170006.00;3.90;2036.08;178169.00;0.59;308.34;;;;;14.30;1.00;;;;;;2264956;61;1142;-87
2021/12/28 08:12:52;1135913.00;3.79;1974.77;208245.00;0.69;360.11;;;;;14.10;1.00;;;;;;2275086;61;1113;-87
2021/12/28 08:15:20;1137245.00;3.79;1977.16;155862.00;0.52;269.91;;;;;14.00;1.00;;;;;;2277196;61;1132;-87
2021/12/28 08:17:47;119092008.00;396.97;68421592.00;155421.00;0.52;269.15;;;;;14.10;1.00;;;;;;2276840;61;1300;-87
2021/12/28 08:20:16;874172.00;2.91;1510.80;99744.00;0.33;173.13;;;;;13.50;1.00;;;;;;2278668;61;1109;-87
2021/12/28 08:22:44;120956920.00;403.19;71689560.00;124456.00;0.41;215.77;;;;;13.40;1.00;;;;;;2274666;61;1129;-86
2021/12/28 08:25:14;1160022.00;3.87;2018.10;115963.00;0.39;201.12;;;;;13.60;1.00;;;;;;2275147;61;1996;-87
2021/12/28 08:27:43;1344550.00;4.48;2353.87;140079.00;0.47;242.71;;;;;14.00;1.00;;;;;;2274557;61;1304;-87
2021/12/28 08:30:12;1109478.00;3.70;1927.38;227663.00;0.76;393.53;;;;;14.20;1.00;;;;;;2274533;61;1445;-87
2021/12/28 08:32:39;1395216.00;4.65;2447.45;405111.00;1.35;698.59;;;;;14.50;1.00;;;;;;2263887;61;1177;-87
2021/12/28 08:35:08;1441889.00;4.81;2534.24;200078.00;0.67;346.06;;;;;14.60;1.00;;;;;;2275072;61;1716;-87
2021/12/28 08:37:35;1466420.00;4.89;2580.09;221850.00;0.74;383.53;;;;;14.90;1.00;;;;;;2274824;61;1386;-87
2021/12/28 08:40:04;118203536.00;394.01;66900276.00;176427.00;0.59;305.34;;;;;14.80;1.00;;;;;;2274520;61;1133;-86
2021/12/28 08:42:31;1037143.00;3.46;1798.37;132053.00;0.44;228.87;;;;;14.30;1.00;;;;;;2274971;61;1711;-87
2021/12/28 08:44:59;1102804.00;3.68;1915.44;128208.00;0.43;222.24;;;;;14.10;1.00;;;;;;2274617;61;1988;-86
2021/12/28 08:47:27;1171028.00;3.90;2037.93;123694.00;0.41;214.45;;;;;13.90;1.00;;;;;;2274779;61;1359;-86
2021/12/28 08:49:54;1424876.00;4.75;2502.54;185195.00;0.62;320.44;;;;;14.20;1.00;;;;;;2274789;61;1136;-87
2021/12/28 08:52:21;1096234.00;3.65;1903.69;151689.00;0.51;262.72;;;;;14.40;1.00;;;;;;2274812;61;1153;-87
2021/12/28 08:54:48;970099.00;3.23;1679.58;207408.00;0.69;358.67;;;;;14.30;1.00;;;;;;2275096;61;1082;-87
2021/12/28 08:57:15;541320.00;1.80;933.00;93048.00;0.31;161.57;;;;;14.70;1.00;;;;;;2274902;61;1222;-87
2021/12/28 08:59:42;347611.00;1.16;599.76;91155.00;0.30;158.30;;;;;14.70;1.00;;;;;;2274703;61;1205;-86
2021/12/28 09:02:11;579788.00;1.93;999.33;91589.00;0.31;159.05;;;;;14.30;1.00;;;;;;2274450;61;1041;-86
2021/12/28 09:04:43;506051.00;1.69;872.24;77989.00;0.26;135.56;;;;;14.10;1.00;;;;;;2274420;61;1232;-87
2021/12/28 09:07:10;878360.00;2.93;1518.14;140365.00;0.47;243.20;;;;;14.30;1.00;;;;;;2275056;61;1388;-87
2021/12/28 09:09:37;644334.00;2.15;1110.83;90018.00;0.30;156.34;;;;;14.40;1.00;;;;;;2275351;61;1177;-87
2021/12/28 09:12:05;610068.00;2.03;1051.61;85699.00;0.29;148.88;;;;;14.70;1.00;;;;;;2275742;61;1227;-87
2021/12/28 09:14:33;494812.00;1.65;852.89;93154.00;0.31;161.75;;;;;14.70;1.00;;;;;;2275409;61;1085;-87
2021/12/28 09:17:01;719802.00;2.40;1241.59;128195.00;0.43;222.22;;;;;14.80;1.00;;;;;;2274575;61;1281;-86
2021/12/28 09:19:30;455836.00;1.52;785.82;80837.00;0.27;140.48;;;;;14.90;1.00;;;;;;2275273;61;1209;-87
2021/12/28 09:21:57;558009.00;1.86;961.77;90099.00;0.30;156.48;;;;;14.80;1.00;;;;;;2275642;61;1101;-87
2021/12/28 09:24:24;405334.00;1.35;698.98;90373.00;0.30;156.95;;;;;15.00;1.00;;;;;;2275255;61;1145;-86
2021/12/28 09:26:51;325415.00;1.08;561.61;91172.00;0.30;158.33;;;;;14.70;1.00;;;;;;2276335;61;2009;-87
2021/12/28 09:29:18;933419.00;3.11;1614.89;97141.00;0.32;168.64;;;;;14.30;1.00;;;;;;2272018;61;1242;-87
2021/12/28 09:31:46;416729.00;1.39;718.57;87498.00;0.29;151.99;;;;;14.40;1.00;;;;;;2279170;61;1323;-86
2021/12/28 09:34:12;483275.00;1.61;833.03;89009.00;0.30;154.60;;;;;14.00;1.00;;;;;;2270900;61;1146;-85
2021/12/28 09:36:41;230320.00;0.77;398.10;0.00;0.00;0.62;;;;;14.10;1.00;;;;;;2276823;61;1515;-87
2021/12/28 09:39:08;230457.00;0.77;398.34;0.00;0.00;0.62;;;;;14.00;1.00;;;;;;2268475;61;1045;-86
2021/12/28 09:41:35;197570.00;0.66;341.74;0.00;0.00;0.62;;;;;14.20;1.00;;;;;;2271261;61;1480;-86
2021/12/28 09:44:02;181956.00;0.61;314.86;0.00;0.00;0.62;;;;;14.30;1.00;;;;;;2269247;61;1173;-86
2021/12/28 09:46:29;258764.00;0.86;447.02;0.00;0.00;0.62;;;;;14.30;1.00;;;;;;2269435;61;2026;-86
2021/12/28 09:48:56;301282.00;1.00;520.12;0.00;0.00;0.62;;;;;13.80;1.00;;;;;;2269284;61;1156;-86
2021/12/28 09:51:23;479977.00;1.60;827.36;0.00;0.00;0.62;;;;;13.40;1.00;;;;;;2269667;61;1123;-86
2021/12/28 09:53:54;196516.00;0.66;339.93;0.00;0.00;0.62;;;;;13.60;1.00;;;;;;2270170;61;1107;-86